Time;durP1;ratioP1;P1;durP2;ratioP2;P2;SDS_P1;SDS_P2;PMS_P1;PMS_P2;Temp;Humidity;BMP_temperature;BMP_pressure;BME280_temperature;BME280_humidity;BME280_pressure;Samples;Min_cycle;Max_cycle;Signal;HPM_P1;HPM_P2
2022/01/14 00:02:08;;;;;;;7.40;4.88;;;7.30;47.50;;;;;;5074426;28;20108;-70
2022/01/14 00:04:35;;;;;;;8.77;4.78;;;7.30;47.80;;;;;;5073879;28;20177;-67
2022/01/14 00:07:01;;;;;;;8.75;4.88;;;7.30;48.00;;;;;;5072557;28;20021;-70
2022/01/14 00:09:27;;;;;;;8.23;4.32;;;7.30;47.80;;;;;;5074420;28;20082;-69
2022/01/14 00:11:57;;;;;;;7.28;4.32;;;7.30;47.90;;;;;;5073809;28;20131;-68
2022/01/14 00:14:37;;;;;;;9.57;4.28;;;7.40;48.10;;;;;;5073825;28;20033;-69
2022/01/14 00:17:05;;;;;;;9.48;4.82;;;7.40;47.90;;;;;;5072968;28;20491;-69
2022/01/14 00:19:31;;;;;;;8.50;5.15;;;7.30;48.30;;;;;;5074002;28;20041;-70
2022/01/14 00:21:59;;;;;;;8.43;4.40;;;7.40;47.90;;;;;;5073407;28;20108;-69
2022/01/14 00:24:30;;;;;;;8.52;5.47;;;7.40;48.00;;;;;;5072555;28;20484;-68
2022/01/14 00:35:16;;;;;;;7.75;4.85;;;7.40;48.60;;;;;;5071125;28;20473;-69
2022/01/14 00:37:41;;;;;;;8.40;5.10;;;7.30;48.90;;;;;;5072102;28;20028;-68
2022/01/14 00:40:08;;;;;;;8.95;5.43;;;7.30;49.20;;;;;;5076318;28;20063;-69
2022/01/14 00:42:33;;;;;;;8.27;5.18;;;7.40;49.20;;;;;;5073455;28;20032;-68
2022/01/14 00:44:59;;;;;;;10.15;4.65;;;7.40;49.40;;;;;;5069897;28;20090;-70
2022/01/14 00:47:25;;;;;;;8.95;5.07;;;7.40;49.60;;;;;;5073242;28;20454;-68
2022/01/14 00:49:50;;;;;;;7.82;5.10;;;7.30;49.60;;;;;;5073705;28;20033;-69
2022/01/14 00:52:16;;;;;;;9.10;5.20;;;7.40;49.90;;;;;;5073309;28;20032;-71
2022/01/14 00:54:42;;;;;;;7.43;5.07;;;7.40;49.30;;;;;;5071409;28;20020;-69
2022/01/14 00:59:52;;;;;;;8.98;4.60;;;7.40;49.20;;;;;;5071589;28;20048;-71
2022/01/14 01:02:18;;;;;;;7.68;4.65;;;7.40;49.20;;;;;;5073462;28;20032;-69
2022/01/14 01:04:44;;;;;;;9.25;5.20;;;7.40;49.50;;;;;;5070005;28;20028;-69
2022/01/14 01:07:10;;;;;;;7.90;4.78;;;7.40;49.40;;;;;;5072140;28;20032;-70
2022/01/14 01:09:38;;;;;;;8.02;4.68;;;7.40;49.50;;;;;;5073108;28;20029;-70
2022/01/14 01:12:12;;;;;;;7.72;4.55;;;7.50;49.50;;;;;;5069980;28;20041;-69
2022/01/14 01:14:56;;;;;;;7.00;3.97;;;7.50;49.60;;;;;;5072211;28;20107;-70
2022/01/14 01:17:22;;;;;;;7.65;4.47;;;7.50;49.40;;;;;;5073524;28;20028;-69
2022/01/14 01:19:47;;;;;;;7.15;4.05;;;7.50;49.40;;;;;;5071967;28;20040;-70
2022/01/14 01:22:13;;;;;;;9.35;4.95;;;7.50;49.50;;;;;;5072886;28;20033;-70
2022/01/14 01:24:39;;;;;;;9.05;5.10;;;7.50;49.80;;;;;;5072213;28;20155;-69
2022/01/14 01:27:08;;;;;;;9.07;5.13;;;7.50;49.50;;;;;;5072825;28;20074;-69
2022/01/14 01:32:08;;;;;;;8.48;4.78;;;7.50;49.50;;;;;;5076011;28;20032;-69
2022/01/14 01:34:35;;;;;;;6.88;4.53;;;7.50;49.70;;;;;;5070673;28;20122;-68
2022/01/14 01:37:03;;;;;;;6.75;4.35;;;7.50;50.00;;;;;;5071466;28;20419;-68
2022/01/14 01:39:34;;;;;;;7.38;4.35;;;7.50;50.10;;;;;;5072486;28;20047;-69
2022/01/14 01:42:08;;;;;;;6.90;4.30;;;7.50;50.30;;;;;;5072067;28;20416;-69
2022/01/14 01:44:37;;;;;;;6.88;4.18;;;7.60;50.40;;;;;;5072746;28;20029;-69
2022/01/14 01:47:04;;;;;;;7.05;4.20;;;7.60;50.40;;;;;;5071590;28;20472;-69
2022/01/14 01:49:33;;;;;;;9.95;4.10;;;7.60;50.30;;;;;;5072342;28;20048;-70
2022/01/14 01:51:59;;;;;;;7.68;4.20;;;7.60;50.40;;;;;;5071648;28;20021;-69
2022/01/14 01:54:27;;;;;;;9.07;4.68;;;7.60;49.80;;;;;;5070597;28;20488;-68
2022/01/14 01:57:12;;;;;;;9.25;4.18;;;7.60;49.40;;;;;;5070039;28;20032;-68
2022/01/14 01:59:37;;;;;;;7.38;4.50;;;7.60;49.20;;;;;;5077731;28;20370;-68
2022/01/14 02:02:04;;;;;;;9.35;4.40;;;7.60;48.80;;;;;;5074662;28;20043;-70
2022/01/14 02:04:30;;;;;;;6.63;4.18;;;7.60;48.70;;;;;;5070036;28;20036;-68
2022/01/14 02:06:57;;;;;;;7.22;4.40;;;7.60;48.60;;;;;;5070331;28;20525;-68
2022/01/14 02:09:24;;;;;;;7.05;4.30;;;7.50;48.90;;;;;;5053777;28;20059;-69
2022/01/14 02:11:50;;;;;;;8.45;4.32;;;7.60;48.90;;;;;;5070961;28;20465;-68
2022/01/14 02:14:40;;;;;;;6.88;4.18;;;7.60;48.70;;;;;;5072302;28;20028;-68
2022/01/14 02:22:09;;;;;;;16.52;5.00;;;7.60;48.60;;;;;;5072151;28;20040;-69
2022/01/14 02:22:58;;;;;;;7.88;4.60;;;7.70;48.60;;;;;;5071672;28;20435;-70
2022/01/14 02:25:30;;;;;;;7.90;4.97;;;7.70;48.20;;;;;;5060121;28;20021;-68
2022/01/14 02:27:56;;;;;;;6.50;3.53;;;7.70;48.20;;;;;;5071239;28;20033;-68
2022/01/14 02:30:23;;;;;;;6.40;3.90;;;7.60;48.20;;;;;;5072167;28;20048;-69
2022/01/14 02:32:49;;;;;;;7.45;4.40;;;7.60;48.20;;;;;;5075446;28;20440;-68
2022/01/14 02:35:15;;;;;;;6.22;3.90;;;7.50;48.10;;;;;;5071326;28;20020;-70
2022/01/14 02:37:41;;;;;;;8.40;3.90;;;7.50;48.00;;;;;;5071479;28;20480;-68
2022/01/14 02:40:07;;;;;;;6.57;3.85;;;7.50;48.00;;;;;;5070878;28;20478;-69
2022/01/14 02:42:33;;;;;;;5.93;3.83;;;7.50;48.00;;;;;;5071282;28;20035;-70
2022/01/14 02:45:03;;;;;;;6.03;3.58;;;7.50;47.70;;;;;;5069829;28;20048;-69
2022/01/14 02:47:29;;;;;;;7.88;3.63;;;7.50;47.70;;;;;;5073087;28;20067;-68
2022/01/14 02:49:55;;;;;;;7.35;3.67;;;7.60;47.80;;;;;;5075322;28;20036;-68
2022/01/14 02:52:40;;;;;;;7.28;3.92;;;7.60;47.90;;;;;;5070693;28;20086;-69
2022/01/14 02:55:18;;;;;;;5.78;3.35;;;7.60;47.70;;;;;;5079332;28;20320;-68
2022/01/14 02:57:50;;;;;;;6.28;3.90;;;7.60;47.70;;;;;;5063969;28;20028;-69
2022/01/14 03:00:18;;;;;;;6.25;3.60;;;7.50;47.80;;;;;;5070275;28;20131;-69
2022/01/14 03:02:46;;;;;;;7.38;3.95;;;7.50;48.00;;;;;;5071446;28;20032;-69
2022/01/14 03:05:14;;;;;;;6.82;3.72;;;7.50;48.10;;;;;;5072043;28;20024;-68
2022/01/14 03:07:42;;;;;;;6.38;3.80;;;7.40;47.90;;;;;;5071990;28;20029;-68
2022/01/14 03:10:10;;;;;;;9.02;3.78;;;7.40;48.00;;;;;;5075242;28;20032;-68
2022/01/14 03:12:37;;;;;;;6.47;3.63;;;7.40;48.00;;;;;;5075207;28;20044;-68
2022/01/14 03:15:03;;;;;;;7.00;3.80;;;7.40;47.80;;;;;;5073958;28;20082;-68
2022/01/14 03:17:30;;;;;;;6.63;3.80;;;7.40;48.50;;;;;;5074173;28;20086;-70
2022/01/14 03:19:58;;;;;;;6.15;3.45;;;7.30;48.00;;;;;;5073364;28;20496;-68
2022/01/14 03:22:30;;;;;;;5.35;3.42;;;7.30;48.30;;;;;;5085618;28;20028;-68
2022/01/14 03:27:22;;;;;;;6.28;3.53;;;7.30;48.40;;;;;;5075301;28;20081;-68
2022/01/14 03:30:06;;;;;;;7.28;4.13;;;7.30;48.10;;;;;;5073875;28;20473;-69
2022/01/14 03:32:32;;;;;;;7.35;3.95;;;7.30;48.20;;;;;;5075103;28;20052;-68
2022/01/14 03:34:58;;;;;;;5.25;3.30;;;7.30;48.00;;;;;;5072854;28;20417;-68
2022/01/14 03:37:23;;;;;;;7.20;4.40;;;7.30;48.20;;;;;;5079126;28;20024;-68
2022/01/14 03:39:49;;;;;;;7.05;4.25;;;7.30;48.30;;;;;;5092784;28;20043;-67
2022/01/14 03:42:15;;;;;;;9.07;4.55;;;7.20;48.30;;;;;;5073361;28;20465;-69
2022/01/14 03:44:41;;;;;;;7.63;4.90;;;7.30;48.50;;;;;;5073699;28;20028;-70
2022/01/14 03:47:06;;;;;;;6.85;4.47;;;7.20;48.60;;;;;;5074549;28;20029;-69
2022/01/14 03:49:32;;;;;;;10.90;5.50;;;7.20;48.70;;;;;;5074427;28;20036;-69
2022/01/14 03:51:58;;;;;;;8.50;4.65;;;7.20;49.00;;;;;;5074551;28;20106;-69
2022/01/14 03:54:24;;;;;;;9.90;4.68;;;7.20;49.10;;;;;;5075611;28;20465;-69
2022/01/14 03:56:50;;;;;;;8.70;4.72;;;7.20;49.30;;;;;;5073330;28;20600;-69
2022/01/14 03:59:16;;;;;;;9.35;5.05;;;7.20;49.70;;;;;;5074216;28;20060;-69
2022/01/14 04:01:41;;;;;;;9.63;5.53;;;7.10;49.60;;;;;;5072781;28;20121;-69
2022/01/14 04:04:07;;;;;;;10.05;5.53;;;7.10;49.60;;;;;;5073520;28;20024;-69
2022/01/14 04:06:33;;;;;;;10.45;5.43;;;7.10;49.40;;;;;;5074150;28;20036;-70
2022/01/14 04:08:59;;;;;;;8.23;5.38;;;7.10;49.50;;;;;;5073254;28;20479;-67
2022/01/14 04:11:25;;;;;;;12.90;5.70;;;7.10;49.40;;;;;;5086413;28;20020;-69
2022/01/14 04:13:54;;;;;;;9.07;5.75;;;7.10;49.40;;;;;;5072117;28;20097;-70
2022/01/14 04:16:22;;;;;;;9.65;5.65;;;7.10;49.50;;;;;;5074571;28;20063;-69
2022/01/14 04:18:49;;;;;;;9.80;5.70;;;7.10;49.60;;;;;;5074335;28;20056;-70
2022/01/14 04:21:16;;;;;;;10.82;5.75;;;7.10;49.70;;;;;;5072411;28;20036;-69
2022/01/14 04:23:41;;;;;;;10.02;5.90;;;7.00;50.00;;;;;;5073701;28;20427;-69
2022/01/14 04:26:07;;;;;;;10.65;6.43;;;7.00;50.20;;;;;;5073504;28;20082;-71
2022/01/14 04:28:36;;;;;;;10.27;6.05;;;7.00;50.60;;;;;;5093303;28;20024;-69
2022/01/14 04:31:04;;;;;;;9.98;5.97;;;7.00;51.00;;;;;;5076022;28;20024;-68
2022/01/14 04:33:32;;;;;;;9.70;5.90;;;7.00;51.20;;;;;;5073316;28;20427;-70
2022/01/14 04:35:59;;;;;;;10.05;5.68;;;7.00;51.50;;;;;;5073837;28;20067;-68
2022/01/14 04:38:27;;;;;;;9.80;5.63;;;7.00;51.80;;;;;;5074325;28;20017;-70
2022/01/14 04:40:52;;;;;;;11.13;5.97;;;7.00;51.90;;;;;;5072622;28;20072;-69
2022/01/14 04:43:20;;;;;;;9.48;5.25;;;7.00;52.10;;;;;;5072897;28;20056;-68
2022/01/14 04:46:03;;;;;;;9.07;4.90;;;6.90;52.10;;;;;;5087269;28;20374;-68
2022/01/14 04:48:31;;;;;;;8.63;5.00;;;7.00;52.00;;;;;;5071404;28;20035;-69
2022/01/14 04:50:57;;;;;;;9.57;5.07;;;7.00;51.90;;;;;;5071266;28;20044;-68
2022/01/14 04:53:23;;;;;;;8.25;4.70;;;6.90;51.80;;;;;;5073098;28;20028;-68
2022/01/14 04:55:53;;;;;;;8.00;4.75;;;6.90;51.80;;;;;;5073671;28;20051;-69
2022/01/14 04:58:19;;;;;;;9.18;4.72;;;6.90;51.70;;;;;;5071982;28;20031;-69
2022/01/14 05:00:45;;;;;;;10.57;4.63;;;7.00;51.70;;;;;;5076877;28;20036;-69
2022/01/14 05:03:10;;;;;;;8.93;4.20;;;7.00;51.70;;;;;;5054967;28;20033;-68
2022/01/14 05:05:40;;;;;;;8.40;4.18;;;7.00;51.90;;;;;;5073148;28;20028;-68
2022/01/14 05:08:10;;;;;;;6.68;4.10;;;7.00;52.40;;;;;;5072624;28;20060;-68
2022/01/14 05:10:49;;;;;;;8.05;4.07;;;7.00;52.40;;;;;;5073814;28;20466;-69
2022/01/14 05:13:14;;;;;;;8.57;3.97;;;7.10;52.90;;;;;;5071041;28;20049;-70
2022/01/14 05:15:40;;;;;;;6.70;3.90;;;7.10;52.80;;;;;;5072026;28;20488;-70
2022/01/14 05:18:06;;;;;;;7.20;3.92;;;7.10;52.90;;;;;;5073511;28;20078;-70
2022/01/14 05:20:32;;;;;;;7.07;3.63;;;7.20;52.90;;;;;;5072742;28;20064;-69
2022/01/14 05:22:58;;;;;;;7.22;3.90;;;7.10;52.80;;;;;;5072172;28;20029;-68
2022/01/14 05:25:23;;;;;;;7.75;4.43;;;7.20;52.50;;;;;;5072542;28;20032;-68
2022/01/14 05:27:49;;;;;;;7.65;3.55;;;7.20;52.70;;;;;;5073005;28;20524;-69
2022/01/14 05:30:15;;;;;;;7.97;3.85;;;7.20;52.50;;;;;;5070325;28;20338;-70
2022/01/14 05:33:04;;;;;;;7.25;3.55;;;7.20;52.80;;;;;;5071693;28;20029;-70
2022/01/14 05:35:30;;;;;;;7.97;4.75;;;7.20;53.00;;;;;;5079303;28;20491;-69
2022/01/14 05:37:56;;;;;;;8.50;4.43;;;7.20;53.20;;;;;;5081430;28;20099;-70
2022/01/14 05:40:25;;;;;;;8.15;4.03;;;7.20;53.30;;;;;;5070645;28;20032;-71
2022/01/14 05:42:51;;;;;;;6.95;3.97;;;7.30;53.10;;;;;;5071856;28;20024;-71
2022/01/14 05:45:17;;;;;;;7.95;4.00;;;7.30;53.10;;;;;;5070936;28;20453;-69
2022/01/14 05:48:02;;;;;;;6.93;4.07;;;7.30;53.40;;;;;;5070454;28;20028;-70
2022/01/14 05:50:27;;;;;;;6.78;4.10;;;7.30;53.10;;;;;;5072997;28;20036;-70
2022/01/14 05:52:53;;;;;;;6.45;3.83;;;7.30;53.00;;;;;;5074847;28;20366;-69
2022/01/14 05:55:21;;;;;;;7.18;3.95;;;7.30;53.20;;;;;;5071974;28;20363;-70
2022/01/14 05:57:47;;;;;;;7.63;3.83;;;7.30;53.20;;;;;;5072703;28;20024;-69
2022/01/14 06:00:16;;;;;;;7.55;4.05;;;7.30;53.60;;;;;;5069562;28;20460;-69
2022/01/14 06:02:42;;;;;;;6.78;3.95;;;7.30;53.40;;;;;;5067715;28;20094;-67
2022/01/14 06:05:08;;;;;;;6.93;4.00;;;7.30;53.50;;;;;;5071131;28;20523;-68
2022/01/14 06:07:33;;;;;;;10.35;4.20;;;7.30;53.30;;;;;;5068146;28;20033;-67
2022/01/14 06:09:59;;;;;;;6.88;3.60;;;7.30;53.30;;;;;;5060613;28;20465;-70
2022/01/14 06:12:25;;;;;;;5.70;3.72;;;7.30;53.00;;;;;;5070619;28;20048;-70
2022/01/14 06:14:51;;;;;;;6.45;3.78;;;7.30;52.70;;;;;;5071969;28;20111;-70
2022/01/14 06:17:16;;;;;;;6.53;4.10;;;7.30;52.60;;;;;;5070022;28;20039;-67
2022/01/14 06:19:42;;;;;;;7.30;3.75;;;7.30;52.40;;;;;;5071823;28;20104;-69
2022/01/14 06:22:08;;;;;;;7.80;3.67;;;7.30;52.30;;;;;;5068546;28;20385;-66
2022/01/14 06:24:34;;;;;;;7.95;3.58;;;7.40;52.20;;;;;;5071933;28;20040;-68
2022/01/14 06:27:01;;;;;;;11.18;3.60;;;7.40;52.00;;;;;;5071225;28;20404;-68
2022/01/14 06:29:26;;;;;;;7.30;3.83;;;7.40;51.90;;;;;;5071151;28;20107;-68
2022/01/14 06:31:52;;;;;;;7.45;3.20;;;7.40;51.80;;;;;;5071339;28;20448;-68
2022/01/14 06:34:18;;;;;;;6.50;3.45;;;7.40;51.70;;;;;;5070724;28;20437;-67
2022/01/14 06:36:44;;;;;;;7.65;3.85;;;7.40;51.60;;;;;;5064852;28;20025;-71
2022/01/14 06:39:10;;;;;;;12.65;3.88;;;7.40;51.70;;;;;;5063522;28;20103;-71
2022/01/14 06:41:37;;;;;;;7.22;3.78;;;7.40;51.60;;;;;;5071405;28;20024;-71
2022/01/14 06:44:06;;;;;;;7.78;3.75;;;7.50;51.60;;;;;;5070003;28;20485;-70
2022/01/14 06:46:32;;;;;;;7.32;4.40;;;7.50;51.50;;;;;;5070297;28;20024;-68
2022/01/14 06:48:58;;;;;;;7.03;4.38;;;7.50;51.80;;;;;;5054593;28;20074;-70
2022/01/14 06:51:23;;;;;;;6.72;3.55;;;7.50;51.70;;;;;;5086712;28;20288;-70
2022/01/14 06:53:49;;;;;;;7.47;4.05;;;7.50;51.90;;;;;;5070303;28;20032;-68
2022/01/14 06:56:16;;;;;;;9.88;3.83;;;7.50;52.00;;;;;;5071202;28;20469;-69
2022/01/14 06:58:42;;;;;;;6.78;3.97;;;7.50;52.20;;;;;;5102291;28;20531;-68
2022/01/14 07:01:08;;;;;;;11.13;3.80;;;7.50;52.20;;;;;;5069485;28;20036;-67
2022/01/14 07:03:34;;;;;;;8.10;4.18;;;7.50;52.20;;;;;;5069813;28;20035;-68
2022/01/14 07:06:01;;;;;;;13.70;4.38;;;7.40;52.30;;;;;;5069772;28;20024;-69
2022/01/14 07:08:26;;;;;;;7.22;3.78;;;7.40;52.40;;;;;;5069662;28;20023;-69
2022/01/14 07:10:52;;;;;;;6.85;3.65;;;7.50;52.30;;;;;;5067042;28;20068;-68
2022/01/14 07:13:18;;;;;;;8.07;4.00;;;7.50;52.00;;;;;;5071046;28;20123;-70
2022/01/14 07:15:44;;;;;;;9.35;3.70;;;7.50;52.00;;;;;;5069297;28;20032;-69
2022/01/14 07:18:10;;;;;;;8.02;4.28;;;7.50;51.90;;;;;;5067983;28;20352;-68
2022/01/14 07:20:37;;;;;;;11.07;4.88;;;7.50;51.80;;;;;;5069871;28;20366;-69
2022/01/14 07:23:03;;;;;;;12.80;4.50;;;7.50;51.80;;;;;;5067071;28;20024;-70
2022/01/14 07:25:29;;;;;;;9.32;4.50;;;7.60;51.80;;;;;;5070527;28;20108;-69
2022/01/14 07:27:55;;;;;;;10.00;4.72;;;7.60;51.80;;;;;;5071335;28;20104;-68
2022/01/14 07:30:20;;;;;;;8.63;4.47;;;7.60;51.80;;;;;;5076081;28;20222;-69
2022/01/14 07:32:46;;;;;;;9.55;4.57;;;7.60;51.70;;;;;;5068967;28;20086;-71
2022/01/14 07:35:12;;;;;;;10.38;4.80;;;7.60;51.90;;;;;;5069346;28;20028;-69
2022/01/14 07:37:38;;;;;;;7.05;3.95;;;7.60;52.10;;;;;;5070761;28;20036;-70
2022/01/14 07:40:05;;;;;;;11.43;4.90;;;7.70;51.90;;;;;;5070376;28;20051;-68
2022/01/14 07:42:30;;;;;;;11.15;4.72;;;7.70;52.00;;;;;;5062035;28;20028;-70
2022/01/14 07:44:56;;;;;;;13.38;11.65;;;7.80;51.80;;;;;;5068085;28;20082;-71
2022/01/14 07:47:22;;;;;;;20.77;19.00;;;8.30;51.50;;;;;;5070077;28;20028;-72
2022/01/14 07:49:48;;;;;;;65.22;59.35;;;10.60;47.50;;;;;;5065137;28;20060;-69
2022/01/14 07:52:14;;;;;;;45.08;41.47;;;12.30;43.00;;;;;;5052506;28;20106;-69
2022/01/14 07:54:39;;;;;;;1999.90;999.90;;;12.60;41.20;;;;;;5072260;28;20052;-69
2022/01/14 07:57:07;;;;;;;16.17;14.48;;;12.00;41.40;;;;;;5088144;28;20017;-70
2022/01/14 07:59:35;;;;;;;8.52;4.30;;;11.40;42.70;;;;;;5074787;28;20126;-69
2022/01/14 08:02:01;;;;;;;16.25;5.05;;;10.80;43.60;;;;;;5083391;28;20478;-72
2022/01/14 08:04:28;;;;;;;9.27;4.60;;;10.50;44.40;;;;;;5092159;28;20396;-69
2022/01/14 08:06:57;;;;;;;9.27;5.10;;;10.30;45.00;;;;;;5076909;28;20465;-70
2022/01/14 08:09:23;;;;;;;6.03;3.80;;;10.00;45.60;;;;;;5074433;28;20412;-68
2022/01/14 08:11:49;;;;;;;8.38;3.80;;;9.90;45.50;;;;;;5075420;28;20056;-69
2022/01/14 08:14:15;;;;;;;6.43;3.97;;;9.70;46.20;;;;;;5080696;28;20062;-70
2022/01/14 08:16:41;;;;;;;13.27;4.28;;;9.60;46.50;;;;;;5083219;28;20032;-71
2022/01/14 08:19:08;;;;;;;6.78;3.67;;;9.50;46.70;;;;;;5074617;28;20380;-70
2022/01/14 08:21:33;;;;;;;12.25;3.95;;;9.50;46.70;;;;;;5073570;28;20024;-72
2022/01/14 08:23:59;;;;;;;6.72;3.58;;;9.30;47.30;;;;;;5079629;28;20031;-69
2022/01/14 08:26:25;;;;;;;9.70;4.38;;;9.30;47.40;;;;;;5076565;28;20380;-69
2022/01/14 08:28:51;;;;;;;14.15;4.35;;;9.30;47.10;;;;;;5092766;28;20024;-69
2022/01/14 08:31:17;;;;;;;10.65;4.15;;;9.30;47.30;;;;;;5067579;28;20115;-70
2022/01/14 08:33:44;;;;;;;7.88;3.83;;;9.30;47.20;;;;;;5081461;28;20055;-69
2022/01/14 08:36:11;;;;;;;7.05;3.50;;;9.30;46.90;;;;;;5080824;28;20077;-70
2022/01/14 08:38:37;;;;;;;6.38;3.45;;;9.30;46.70;;;;;;5093854;28;20058;-70
2022/01/14 08:41:03;;;;;;;6.65;3.13;;;9.20;46.60;;;;;;5092846;28;20384;-70
2022/01/14 08:43:29;;;;;;;7.25;3.35;;;9.20;46.40;;;;;;5074798;28;20098;-70
2022/01/14 08:45:58;;;;;;;7.03;3.70;;;9.30;46.60;;;;;;5080488;28;20028;-71
2022/01/14 08:48:24;;;;;;;6.70;3.60;;;9.40;47.00;;;;;;5073225;28;20020;-69
2022/01/14 08:50:50;;;;;;;8.27;3.38;;;9.30;46.30;;;;;;5073765;28;20543;-71
2022/01/14 08:53:15;;;;;;;8.27;3.90;;;9.20;46.60;;;;;;5073001;28;20029;-70
2022/01/14 08:55:42;;;;;;;11.07;3.97;;;9.30;46.60;;;;;;5074635;28;20047;-68
2022/01/14 08:58:08;;;;;;;9.32;3.80;;;9.30;46.50;;;;;;5069637;28;20151;-72
2022/01/14 09:00:35;;;;;;;9.82;3.40;;;9.30;46.30;;;;;;5057016;28;20036;-71
2022/01/14 09:03:03;;;;;;;6.75;3.33;;;9.40;46.30;;;;;;5061415;28;20028;-72
2022/01/14 09:05:29;;;;;;;6.30;3.58;;;9.50;45.80;;;;;;5072459;28;20032;-74
2022/01/14 09:07:55;;;;;;;6.05;3.55;;;9.50;45.80;;;;;;5074960;28;20461;-67
2022/01/14 09:10:20;;;;;;;8.85;3.78;;;9.50;46.10;;;;;;5073094;28;20400;-70
2022/01/14 09:12:46;;;;;;;6.97;3.20;;;9.50;46.20;;;;;;5073042;28;20040;-76
2022/01/14 09:15:13;;;;;;;9.55;3.70;;;9.60;46.10;;;;;;5072495;28;20056;-76
2022/01/14 09:20:24;;;;;;;7.63;3.97;;;9.80;45.90;;;;;;5070160;28;20039;-76
2022/01/14 09:22:51;;;;;;;5.32;3.25;;;9.80;45.70;;;;;;5072275;28;20032;-67
2022/01/14 09:25:20;;;;;;;5.38;3.28;;;9.90;45.80;;;;;;5072050;28;20028;-75
2022/01/14 09:27:48;;;;;;;9.35;4.40;;;10.00;45.50;;;;;;5073003;28;20114;-75
2022/01/14 09:30:15;;;;;;;10.23;3.88;;;10.20;45.60;;;;;;5078826;28;20090;-69
2022/01/14 09:32:40;;;;;;;7.45;3.47;;;10.30;45.40;;;;;;5056938;28;20039;-68
2022/01/14 09:35:07;;;;;;;7.30;4.07;;;10.40;46.00;;;;;;5055372;28;20041;-74
2022/01/14 09:37:34;;;;;;;4.97;3.30;;;10.50;45.20;;;;;;5055898;28;20036;-68
2022/01/14 09:40:00;;;;;;;5.70;3.05;;;10.50;44.70;;;;;;5056803;28;20039;-73
2022/01/14 09:42:27;;;;;;;8.20;3.78;;;10.50;44.90;;;;;;5054697;28;20036;-65
2022/01/14 09:44:53;;;;;;;11.10;4.00;;;10.50;45.20;;;;;;5056620;28;20066;-67
2022/01/14 09:47:20;;;;;;;6.38;3.65;;;10.70;44.70;;;;;;5056488;28;20107;-70
2022/01/14 09:49:46;;;;;;;7.55;4.00;;;10.70;44.60;;;;;;5057157;28;20093;-64
2022/01/14 09:52:13;;;;;;;7.63;3.28;;;10.70;44.70;;;;;;5055049;28;20032;-65
2022/01/14 09:54:41;;;;;;;11.88;3.80;;;10.70;44.30;;;;;;5056874;28;20036;-67
2022/01/14 09:57:08;;;;;;;7.78;3.47;;;10.80;44.50;;;;;;5053553;28;20032;-70
2022/01/14 09:59:35;;;;;;;13.15;3.65;;;10.90;44.40;;;;;;5051964;28;20042;-67
2022/01/14 10:02:00;;;;;;;14.77;4.07;;;10.90;44.40;;;;;;5052602;28;20470;-67
2022/01/14 10:04:26;;;;;;;7.22;3.15;;;11.00;44.40;;;;;;5054240;28;21250;-71
2022/01/14 10:06:55;;;;;;;6.38;3.63;;;11.00;44.40;;;;;;5056534;28;20028;-71
2022/01/14 10:09:43;;;;;;;7.55;3.80;;;11.00;44.70;;;;;;5055558;28;20457;-67
2022/01/14 10:12:16;;;;;;;11.70;4.28;;;11.00;45.10;;;;;;5054635;28;20105;-65
2022/01/14 10:14:52;;;;;;;9.00;4.22;;;11.00;45.40;;;;;;5054555;28;20036;-71
2022/01/14 10:17:18;;;;;;;6.38;4.10;;;11.10;45.40;;;;;;5055449;28;20033;-69
2022/01/14 10:19:45;;;;;;;8.57;3.65;;;11.10;45.90;;;;;;5054023;28;20044;-67
2022/01/14 10:22:26;;;;;;;8.48;4.50;;;11.00;46.30;;;;;;5055593;28;20063;-67
2022/01/14 10:25:08;;;;;;;8.70;4.25;;;11.00;46.00;;;;;;5056180;28;20348;-70
2022/01/14 10:27:43;;;;;;;6.63;4.20;;;11.10;46.00;;;;;;5053039;28;20432;-65
2022/01/14 10:30:23;;;;;;;8.50;4.28;;;11.10;45.70;;;;;;5055760;28;20040;-68
2022/01/14 10:32:54;;;;;;;14.45;4.00;;;11.10;45.60;;;;;;5037855;28;20108;-72
2022/01/14 10:35:22;;;;;;;7.18;4.20;;;11.10;45.30;;;;;;5053541;28;20070;-65
2022/01/14 10:37:48;;;;;;;7.75;3.60;;;11.20;45.20;;;;;;5055390;28;20485;-65
2022/01/14 10:40:20;;;;;;;6.35;3.22;;;11.20;45.80;;;;;;5053994;28;20040;-69
2022/01/14 10:42:50;;;;;;;4.95;3.20;;;11.40;45.00;;;;;;5055700;28;20039;-67
2022/01/14 10:45:22;;;;;;;7.03;3.17;;;11.70;44.60;;;;;;5055625;28;20489;-68
2022/01/14 10:47:58;;;;;;;4.88;3.05;;;12.30;43.60;;;;;;5056146;28;20431;-68
2022/01/14 10:50:30;;;;;;;5.95;3.50;;;13.00;42.20;;;;;;5050174;28;20079;-68
2022/01/14 10:52:56;;;;;;;8.60;3.15;;;14.00;40.60;;;;;;5054170;28;20185;-67
2022/01/14 10:55:34;;;;;;;9.60;3.42;;;14.80;39.70;;;;;;5054664;28;20056;-71
2022/01/14 10:58:02;;;;;;;6.72;3.33;;;15.00;38.00;;;;;;5053803;28;20078;-66
2022/01/14 11:00:28;;;;;;;8.40;2.85;;;15.00;38.80;;;;;;5052914;28;20044;-64
2022/01/14 11:02:54;;;;;;;8.65;2.92;;;14.70;38.10;;;;;;5054718;28;20017;-68
2022/01/14 11:05:24;;;;;;;5.38;3.05;;;13.90;39.40;;;;;;5053006;28;20048;-71
2022/01/14 11:07:51;;;;;;;5.53;2.83;;;13.40;40.80;;;;;;5055453;28;20044;-71
2022/01/14 11:10:30;;;;;;;5.97;3.15;;;13.00;42.10;;;;;;5054663;28;20025;-72
2022/01/14 11:12:57;;;;;;;8.30;2.78;;;13.10;41.80;;;;;;5052219;28;20096;-71
2022/01/14 11:15:25;;;;;;;12.48;3.13;;;13.20;41.70;;;;;;5053130;28;20037;-70
2022/01/14 11:17:54;;;;;;;10.85;3.00;;;13.00;41.90;;;;;;5052746;28;20044;-70
2022/01/14 11:20:31;;;;;;;13.65;2.78;;;12.80;42.20;;;;;;5054359;28;20101;-72
2022/01/14 11:23:15;;;;;;;19.08;3.58;;;12.70;42.60;;;;;;5054473;28;20113;-72
2022/01/14 11:25:59;;;;;;;4.75;2.60;;;12.60;43.00;;;;;;5054705;28;20092;-69
2022/01/14 11:28:31;;;;;;;6.77;2.63;;;12.50;43.00;;;;;;5050113;28;20282;-68
2022/01/14 11:30:57;;;;;;;9.93;2.65;;;12.50;42.90;;;;;;5056734;28;20024;-71
2022/01/14 11:33:41;;;;;;;7.35;2.47;;;12.40;42.80;;;;;;5058378;28;20078;-71
2022/01/14 11:36:07;;;;;;;;;;;12.50;42.70;;;;;;5055376;28;20034;-66
2022/01/14 11:38:41;;;;;;;6.57;2.10;;;13.30;43.00;;;;;;5056739;28;19917;-67
2022/01/14 11:41:10;;;;;;;5.55;2.20;;;13.90;40.30;;;;;;5054525;28;20895;-64
2022/01/14 11:43:42;;;;;;;4.15;2.05;;;13.60;40.30;;;;;;5072896;28;20468;-71
2022/01/14 11:46:11;;;;;;;6.50;2.15;;;13.20;41.90;;;;;;5057296;28;20033;-70
2022/01/14 11:48:45;;;;;;;5.10;2.35;;;12.80;42.50;;;;;;5055025;28;20070;-70
2022/01/14 11:51:14;;;;;;;6.25;2.05;;;12.70;42.70;;;;;;5055551;28;20028;-64
2022/01/14 11:53:51;;;;;;;6.30;2.35;;;12.60;43.70;;;;;;5048748;28;20124;-70
2022/01/14 11:56:32;;;;;;;3.38;2.20;;;12.40;43.00;;;;;;5052837;28;20090;-72
2022/01/14 11:59:17;;;;;;;5.93;2.70;;;12.40;43.80;;;;;;5047913;28;20931;-67
2022/01/14 12:01:44;;;;;;;5.75;2.63;;;12.80;43.80;;;;;;5050411;28;20083;-68
2022/01/14 12:04:10;;;;;;;6.25;3.75;;;13.50;42.10;;;;;;5053025;28;20032;-69
2022/01/14 12:06:51;;;;;;;5.07;2.70;;;13.50;41.00;;;;;;5050417;28;20037;-68
2022/01/14 12:09:24;;;;;;;4.82;3.08;;;13.10;41.60;;;;;;5050686;28;20111;-69
2022/01/14 12:12:30;;;;;;;5.13;2.33;;;12.90;42.10;;;;;;5048066;28;20052;-68
2022/01/14 12:14:59;;;;;;;4.38;2.40;;;12.80;41.90;;;;;;5053164;28;20037;-74
2022/01/14 12:17:41;;;;;;;8.88;2.55;;;12.60;42.30;;;;;;5054244;28;20056;-72
2022/01/14 12:20:14;;;;;;;7.95;2.83;;;12.50;42.40;;;;;;5056482;28;20090;-72
2022/01/14 12:23:07;;;;;;;7.93;2.72;;;12.50;42.10;;;;;;5056989;28;20542;-73
2022/01/14 12:25:42;;;;;;;7.45;2.70;;;12.50;42.60;;;;;;5071966;28;20040;-72
2022/01/14 12:28:17;;;;;;;6.20;2.53;;;12.40;42.50;;;;;;5057306;28;20035;-73
2022/01/14 12:30:57;;;;;;;5.18;2.58;;;12.50;42.50;;;;;;5054477;28;20052;-74
2022/01/14 12:33:46;;;;;;;4.95;2.58;;;12.40;43.30;;;;;;5054885;28;20303;-73
2022/01/14 12:36:22;;;;;;;4.78;2.45;;;12.30;43.50;;;;;;5056202;28;20037;-72
2022/01/14 12:38:49;;;;;;;8.68;3.10;;;12.30;43.90;;;;;;5056830;28;20253;-73
2022/01/14 12:41:21;;;;;;;9.25;3.20;;;12.20;44.20;;;;;;5052902;28;20123;-73
2022/01/14 12:43:52;;;;;;;8.93;2.95;;;12.10;45.10;;;;;;5052497;28;20045;-73
2022/01/14 12:46:46;;;;;;;7.50;3.30;;;12.10;45.20;;;;;;5053582;28;20318;-73
2022/01/14 12:49:19;;;;;;;10.40;2.80;;;12.00;45.40;;;;;;5050398;28;20377;-69
2022/01/14 12:51:45;;;;;;;8.27;3.28;;;11.90;45.30;;;;;;5055165;28;20111;-70
2022/01/14 12:54:11;;;;;;;5.75;3.55;;;11.90;44.90;;;;;;5056712;28;20040;-64
2022/01/14 12:56:41;;;;;;;7.25;3.08;;;11.90;44.60;;;;;;5055205;28;20032;-67
2022/01/14 12:59:20;;;;;;;5.30;2.55;;;11.90;44.20;;;;;;5055494;28;20035;-71
2022/01/14 13:01:53;;;;;;;8.65;2.78;;;11.90;43.10;;;;;;5052850;28;20029;-67
2022/01/14 13:04:21;;;;;;;6.03;2.65;;;11.80;43.00;;;;;;5051514;28;20110;-73
2022/01/14 13:06:58;;;;;;;13.13;2.70;;;11.80;41.90;;;;;;5054888;28;20052;-77
2022/01/14 13:09:31;;;;;;;4.95;2.65;;;11.80;41.20;;;;;;5052104;28;20109;-72
2022/01/14 13:12:25;;;;;;;7.45;3.20;;;11.80;42.60;;;;;;5048342;28;20395;-73
2022/01/14 13:14:55;;;;;;;6.53;3.20;;;11.80;41.90;;;;;;5050713;28;20044;-74
2022/01/14 13:17:26;;;;;;;7.72;2.65;;;11.80;43.20;;;;;;5044616;28;20032;-71
2022/01/14 13:19:57;;;;;;;5.10;2.55;;;11.70;42.90;;;;;;5051509;28;20032;-69
2022/01/14 13:22:23;;;;;;;9.40;2.70;;;11.70;43.40;;;;;;5051190;28;20526;-65
2022/01/14 13:25:13;;;;;;;5.00;2.75;;;11.70;43.20;;;;;;5049734;28;20033;-72